• Join FlightAware (Why Join?)
  • Login
  • US Flag 
09:24PM EDT


 

Airport Tracker/Info


-or-


 

Live Flight TrackerFlight Track Log ✈ N73406 ✈ 25-May-2012 ✈ KIAH - KATL

Flight Track Log - Related Links

Times and Time Zones

All times are in EDT time to prevent confusion due to time zone crossing. See the N73406 flight status page for this flight to view local times or setup timezone preferences in your user account.

Time Position Orientation Groundspeed Altitude Reporting Facility
EDT Latitude Longitude Course Direction KTS MPH feet Rate Location/Type
08:23PM 29.9834 -95.2742 245° Southwest  Level FlightAware Approximate
08:23PM 29.9561 -95.3431 91° East 171 197 700  Level Houston Center
08:28PM 29.9508 -94.9858 82° East 276 318 9,300 1,800 Climbing Houston Center
08:28PM 29.9561 -94.9406 85° East 286 329 10,100 1,680 Climbing Houston Center
08:29PM 29.9622 -94.8544 85° East 305 351 11,800 1,860 Climbing Houston Center
08:30PM 29.9711 -94.7419 84° East 324 373 13,900 2,100 Climbing Houston Center
08:31PM 29.9819 -94.6247 86° East 349 402 16,100 1,920 Climbing Houston Center
08:32PM 29.9889 -94.5003 88° East 369 425 17,800 1,860 Climbing Houston Center
08:33PM 29.9936 -94.3639 85° East 382 440 19,900 1,800 Climbing Houston Center
08:34PM 30.0047 -94.2250 82° East 405 466 21,500 1,680 Climbing Houston Center
08:35PM 30.0219 -94.0886 82° East 424 488 23,300 1,740 Climbing Houston Center
08:36PM 30.0389 -93.9500 82° East 430 495 25,000 1,500 Climbing Houston Center
08:37PM 30.0558 -93.8089 83° East 435 501 26,400 960 Climbing Houston Center
08:38PM 30.0706 -93.6747 82° East 452 520 27,000 240 Climbing Houston Center
08:39PM 30.0892 -93.5286 82° East 452 520 26,900 -60 Descending Houston Center
08:40PM 30.1058 -93.3850 82° East 457 526 26,900 60 Level Houston Center
08:41PM 30.1242 -93.2389 82° East 457 526 27,100 600 Climbing Houston Center
08:42PM 30.1425 -93.0900 76° East 457 526 28,200 1,200 Climbing Houston Center
08:43PM 30.1733 -92.9417 77° East 469 540 29,500 1,320 Climbing Houston Center
08:44PM 30.2039 -92.7931 78° East 469 540 30,900 1,380 Climbing Houston Center
08:45PM 30.2322 -92.6442 77° East 469 540 32,300 1,020 Climbing Houston Center
08:46PM 30.2603 -92.4978 78° East 469 540 33,000 300 Climbing Houston Center
08:47PM 30.2883 -92.3489 79° East 469 540 32,900  Descending Houston Center
08:48PM 30.3139 -92.2000 77° East 469 540 33,000  Climbing Houston Center
08:49PM 30.3417 -92.0558 78° East 469 540 33,000  Level Houston Center
08:50PM 30.3692 -91.9089 77° East 469 540 33,000  Level Houston Center
08:51PM 30.3986 -91.7575 77° East 469 540 33,000  Level Houston Center
08:52PM 30.4278 -91.6153 78° East 469 540 33,000  Level Houston Center
08:53PM 30.4547 -91.4658 78° East 469 540 33,000  Level Houston Center
08:54PM 30.4817 -91.3189 75° East 469 540 33,000  Level Houston Center
08:55PM 30.5144 -91.1717 76° East 469 540 33,000  Level Houston Center
08:56PM 30.5453 -91.0244 74° East 469 540 33,000  Level Houston Center
08:58PM 30.5881 -90.8456 77° East 469 540 33,000  Level Houston Center
08:59PM 30.6183 -90.6983 68° East 469 540 33,000  Level Houston Center
09:00PM 30.6675 -90.5578 71° East 469 540 33,000 540 Level Houston Center
09:01PM 30.7100 -90.4147 69° East 464 534 34,100 960 Climbing Houston Center
09:02PM 30.7547 -90.2764 70° East 459 528 35,000 420 Climbing Houston Center
09:03PM 30.7989 -90.1358 70° East 459 528 35,000 -60 Level Houston Center
09:04PM 30.8433 -89.9947 70° East 459 528 34,900  Descending Houston Center
09:05PM 30.8872 -89.8514 72° East 464 534 35,000  Climbing Houston Center
09:06PM 30.9269 -89.7103 69° East 464 534 35,000  Level Houston Center
09:07PM 30.9731 -89.5664 71° East 464 534 35,000  Level Houston Center
09:08PM 31.0144 -89.4228 70° East 464 534 35,000 -60 Level Houston Center
09:09PM 31.0581 -89.2836 71° East 464 534 34,900  Descending Houston Center
09:10PM 31.1031 -89.1322 71° East 464 534 35,000  Climbing Houston Center
09:11PM 31.1464 -88.9881 71° East 458 527 34,900  Descending Houston Center
09:12PM 31.1853 -88.8536 71° East 453 521 35,000  Climbing Houston Center
09:13PM 31.2261 -88.7139 69° East 448 516 35,000  Level Houston Center
09:14PM 31.2711 -88.5767 71° East 448 516 35,000  Level Houston Center
09:15PM 31.3117 -88.4369 72° East 448 516 35,000  Level Houston Center
09:16PM 31.3442 -88.3217 70° East 453 521 35,000  Level Houston Center
09:17PM 31.3989 -88.1403 60° Northeast 456 525 35,000  Level Atlanta Center
09:18PM 31.4614 -88.0142 55° Northeast 451 519 35,000  Level Atlanta Center
09:19PM 31.5297 -87.8978 55° Northeast 441 507 35,000  Level Atlanta Center
09:20PM 31.6025 -87.7767 55° Northeast 441 507 35,000  Level Atlanta Center
09:21PM 31.6728 -87.6575 55° Northeast 441 507 35,000  Level Atlanta Center
09:22PM 31.7453 -87.5358 57° Northeast 441 507 35,000  Level Atlanta Center
09:23PM 31.8133 -87.4114 57° Northeast 446 513 35,000  Level Atlanta Center
09:24PM 31.8814 -87.2892 56° Northeast 446 513 35,000  Level Atlanta Center
09:25PM 31.9492 -87.1694 56° Northeast 436 502 35,000  Level Atlanta Center
09:26PM 32.0189 -87.0492 55° Northeast 436 502 35,000  Level Atlanta Center
09:27PM 32.0972 -86.9172 57° Northeast 436 502 35,000  Level Atlanta Center
09:28PM 32.1625 -86.7989 54° Northeast 436 502 35,000  Level Atlanta Center
09:29PM 32.2275 -86.6931 55° Northeast 430 495 35,000  Level Atlanta Center
09:30PM 32.2967 -86.5747 54° Northeast 437 503 35,000  Level Atlanta Center
09:31PM 32.3678 -86.4586 62° Northeast 437 503 35,000  Level Atlanta Center
09:32PM 32.4247 -86.3297 57° Northeast 429 494 35,000 -180 Level Atlanta Center
09:33PM 32.4894 -86.2108 54° Northeast 429 494 34,700 -1,560 Descending Atlanta Center
09:34PM 32.5667 -86.0844 55° Northeast 448 516 31,900 -2,640 Descending Atlanta Center
09:35PM 32.6353 -85.9678 55° Northeast 443 510 29,500 -2,340 Descending Atlanta Center
09:36PM 32.7017 -85.8556 54° Northeast 418 481 27,300 -2,160 Descending Atlanta Center
09:37PM 32.7722 -85.7386 56° Northeast 404 465 25,200 -2,100 Descending Atlanta Center
09:38PM 32.8342 -85.6308 56° Northeast 392 451 23,200 -2,040 Descending Atlanta Center
09:39PM 32.8919 -85.5306 55° Northeast 381 438 21,200 -2,040 Descending Atlanta Center
09:40PM 32.9514 -85.4275 55° Northeast 381 438 19,200 -1,980 Descending Atlanta Center
09:41PM 33.0111 -85.3269 55° Northeast 380 437 17,300 -2,040 Descending Atlanta Center
09:42PM 33.0683 -85.2311 54° Northeast 366 421 15,200 -2,040 Descending Atlanta Center
09:43PM 33.1214 -85.1425 56° Northeast 340 391 13,300 -1,500 Descending Atlanta Center
09:44PM 33.1681 -85.0589 51° Northeast 334 384 12,200 -900 Descending Atlanta Center
09:45PM 33.2167 -84.9872 48° Northeast 301 346 11,500 -1,200 Descending Atlanta Center
09:46PM 33.2692 -84.9183 48° Northeast 278 320 9,900 -1,740 Descending Atlanta Center
09:47PM 33.3197 -84.8517 44° Northeast 271 312 8,100 -1,260 Descending Atlanta Center
09:48PM 33.3786 -84.7828 North 271 312 7,400 -1,080 Descending Atlanta Center
09:49PM 33.4581 -84.7708 North 278 320 6,000 -1,200 Descending Atlanta Center
09:50PM 33.5311 -84.7589 North 272 313 5,000 -840 Descending Atlanta Center
09:51PM 33.6022 -84.7472 56° Northeast 246 283 4,400 -780 Descending Atlanta Center
09:52PM 33.6317 -84.6950 56° Northeast 190 219 3,500 -900 Descending Atlanta Center